sensor_id;sensor_type;location;lat;lon;timestamp;temperature;humidity
3628;DHT22;1830;49.000;12.074;2022-11-15T00:01:52;4.90;99.90
3628;DHT22;1830;49.000;12.074;2022-11-15T00:04:19;4.90;99.90
3628;DHT22;1830;49.000;12.074;2022-11-15T00:06:47;4.90;99.90
3628;DHT22;1830;49.000;12.074;2022-11-15T00:09:14;4.90;99.90
3628;DHT22;1830;49.000;12.074;2022-11-15T00:11:41;4.80;99.90
3628;DHT22;1830;49.000;12.074;2022-11-15T00:14:08;4.90;99.90
3628;DHT22;1830;49.000;12.074;2022-11-15T00:16:35;5.00;99.90
3628;DHT22;1830;49.000;12.074;2022-11-15T00:19:02;5.00;99.90
3628;DHT22;1830;49.000;12.074;2022-11-15T00:21:29;4.90;99.90
3628;DHT22;1830;49.000;12.074;2022-11-15T00:23:58;4.90;99.90
3628;DHT22;1830;49.000;12.074;2022-11-15T00:26:25;4.80;99.90
3628;DHT22;1830;49.000;12.074;2022-11-15T00:28:51;4.80;99.90
3628;DHT22;1830;49.000;12.074;2022-11-15T00:31:18;4.70;99.90
3628;DHT22;1830;49.000;12.074;2022-11-15T00:33:45;4.60;99.90
3628;DHT22;1830;49.000;12.074;2022-11-15T00:36:12;4.70;99.90
3628;DHT22;1830;49.000;12.074;2022-11-15T00:38:40;4.70;99.90
3628;DHT22;1830;49.000;12.074;2022-11-15T00:41:08;4.70;99.90
3628;DHT22;1830;49.000;12.074;2022-11-15T00:43:35;4.70;99.90
3628;DHT22;1830;49.000;12.074;2022-11-15T00:46:05;4.70;99.90
3628;DHT22;1830;49.000;12.074;2022-11-15T00:48:33;4.60;99.90
3628;DHT22;1830;49.000;12.074;2022-11-15T00:51:00;4.60;99.90
3628;DHT22;1830;49.000;12.074;2022-11-15T00:53:27;4.60;99.90
3628;DHT22;1830;49.000;12.074;2022-11-15T00:55:54;4.60;99.90
3628;DHT22;1830;49.000;12.074;2022-11-15T00:58:22;4.50;99.90
3628;DHT22;1830;49.000;12.074;2022-11-15T01:00:49;4.50;99.90
3628;DHT22;1830;49.000;12.074;2022-11-15T01:03:16;4.50;99.90
3628;DHT22;1830;49.000;12.074;2022-11-15T01:05:43;4.40;99.90
3628;DHT22;1830;49.000;12.074;2022-11-15T01:08:12;4.40;99.90
3628;DHT22;1830;49.000;12.074;2022-11-15T01:10:39;4.40;99.90
3628;DHT22;1830;49.000;12.074;2022-11-15T01:13:06;4.30;99.90
3628;DHT22;1830;49.000;12.074;2022-11-15T01:15:34;4.30;99.90
3628;DHT22;1830;49.000;12.074;2022-11-15T01:18:01;4.30;99.90
3628;DHT22;1830;49.000;12.074;2022-11-15T01:20:27;4.20;99.90
3628;DHT22;1830;49.000;12.074;2022-11-15T01:22:54;4.10;99.90
3628;DHT22;1830;49.000;12.074;2022-11-15T01:25:21;4.10;99.90
3628;DHT22;1830;49.000;12.074;2022-11-15T01:27:48;4.20;99.90
3628;DHT22;1830;49.000;12.074;2022-11-15T01:30:15;4.20;99.90
3628;DHT22;1830;49.000;12.074;2022-11-15T01:32:43;4.30;99.90
3628;DHT22;1830;49.000;12.074;2022-11-15T01:35:11;4.40;99.90
3628;DHT22;1830;49.000;12.074;2022-11-15T01:37:37;4.30;99.90
3628;DHT22;1830;49.000;12.074;2022-11-15T01:40:05;4.30;99.90
3628;DHT22;1830;49.000;12.074;2022-11-15T01:42:32;4.30;99.90
3628;DHT22;1830;49.000;12.074;2022-11-15T01:44:59;4.20;99.90
3628;DHT22;1830;49.000;12.074;2022-11-15T01:47:28;4.20;99.90
3628;DHT22;1830;49.000;12.074;2022-11-15T01:49:59;4.20;99.90
3628;DHT22;1830;49.000;12.074;2022-11-15T01:52:29;4.30;99.90
3628;DHT22;1830;49.000;12.074;2022-11-15T01:55:03;4.20;99.90
3628;DHT22;1830;49.000;12.074;2022-11-15T01:57:31;4.20;99.90
3628;DHT22;1830;49.000;12.074;2022-11-15T01:59:59;4.10;99.90
3628;DHT22;1830;49.000;12.074;2022-11-15T02:02:27;4.10;99.90
3628;DHT22;1830;49.000;12.074;2022-11-15T02:04:54;4.10;99.90
3628;DHT22;1830;49.000;12.074;2022-11-15T02:07:22;4.00;99.90
3628;DHT22;1830;49.000;12.074;2022-11-15T02:09:50;4.00;99.90
3628;DHT22;1830;49.000;12.074;2022-11-15T02:12:19;4.00;99.90
3628;DHT22;1830;49.000;12.074;2022-11-15T02:14:49;4.00;99.90
3628;DHT22;1830;49.000;12.074;2022-11-15T02:17:28;3.90;99.90
3628;DHT22;1830;49.000;12.074;2022-11-15T02:20:41;3.90;99.90
3628;DHT22;1830;49.000;12.074;2022-11-15T02:23:40;3.90;99.90
3628;DHT22;1830;49.000;12.074;2022-11-15T02:26:45;3.90;99.90
3628;DHT22;1830;49.000;12.074;2022-11-15T02:29:21;3.90;99.90
3628;DHT22;1830;49.000;12.074;2022-11-15T02:31:59;3.80;99.90
3628;DHT22;1830;49.000;12.074;2022-11-15T02:34:34;3.80;99.90
3628;DHT22;1830;49.000;12.074;2022-11-15T02:37:13;3.70;99.90
3628;DHT22;1830;49.000;12.074;2022-11-15T02:39:46;3.70;99.90
3628;DHT22;1830;49.000;12.074;2022-11-15T02:42:19;3.60;99.90
3628;DHT22;1830;49.000;12.074;2022-11-15T02:45:07;3.70;99.90
3628;DHT22;1830;49.000;12.074;2022-11-15T02:47:41;3.60;99.90
3628;DHT22;1830;49.000;12.074;2022-11-15T02:50:11;3.60;99.90
3628;DHT22;1830;49.000;12.074;2022-11-15T02:52:39;3.60;99.90
3628;DHT22;1830;49.000;12.074;2022-11-15T02:55:28;3.60;99.90
3628;DHT22;1830;49.000;12.074;2022-11-15T02:58:22;3.60;99.90
3628;DHT22;1830;49.000;12.074;2022-11-15T03:00:56;3.60;99.90
3628;DHT22;1830;49.000;12.074;2022-11-15T03:03:41;3.60;99.90
3628;DHT22;1830;49.000;12.074;2022-11-15T03:06:20;3.60;99.90
3628;DHT22;1830;49.000;12.074;2022-11-15T03:08:55;3.60;99.90
3628;DHT22;1830;49.000;12.074;2022-11-15T03:11:23;3.60;99.90
3628;DHT22;1830;49.000;12.074;2022-11-15T03:13:56;3.70;99.90
3628;DHT22;1830;49.000;12.074;2022-11-15T03:16:28;3.60;99.90
3628;DHT22;1830;49.000;12.074;2022-11-15T03:19:05;3.60;99.90
3628;DHT22;1830;49.000;12.074;2022-11-15T03:21:34;3.50;99.90
3628;DHT22;1830;49.000;12.074;2022-11-15T03:24:05;3.40;99.90
3628;DHT22;1830;49.000;12.074;2022-11-15T03:26:33;3.40;99.90
3628;DHT22;1830;49.000;12.074;2022-11-15T03:29:06;3.50;99.90
3628;DHT22;1830;49.000;12.074;2022-11-15T03:31:38;3.40;99.90
3628;DHT22;1830;49.000;12.074;2022-11-15T03:34:28;3.40;99.90
3628;DHT22;1830;49.000;12.074;2022-11-15T03:36:57;3.30;99.90
3628;DHT22;1830;49.000;12.074;2022-11-15T03:39:25;3.30;99.90
3628;DHT22;1830;49.000;12.074;2022-11-15T03:41:59;3.40;99.90
3628;DHT22;1830;49.000;12.074;2022-11-15T03:44:35;3.30;99.90
3628;DHT22;1830;49.000;12.074;2022-11-15T03:47:07;3.30;99.90
3628;DHT22;1830;49.000;12.074;2022-11-15T03:49:40;3.20;99.90
3628;DHT22;1830;49.000;12.074;2022-11-15T03:52:10;3.20;99.90
3628;DHT22;1830;49.000;12.074;2022-11-15T03:54:46;3.20;99.90
3628;DHT22;1830;49.000;12.074;2022-11-15T03:57:13;3.20;99.90
3628;DHT22;1830;49.000;12.074;2022-11-15T03:59:40;3.20;99.90
3628;DHT22;1830;49.000;12.074;2022-11-15T04:02:07;3.10;99.90
3628;DHT22;1830;49.000;12.074;2022-11-15T04:04:35;3.10;99.90
3628;DHT22;1830;49.000;12.074;2022-11-15T04:07:02;3.10;99.90
3628;DHT22;1830;49.000;12.074;2022-11-15T04:09:29;3.10;99.90
3628;DHT22;1830;49.000;12.074;2022-11-15T04:11:56;3.10;99.90
3628;DHT22;1830;49.000;12.074;2022-11-15T04:14:23;3.10;99.90
3628;DHT22;1830;49.000;12.074;2022-11-15T04:16:50;3.10;99.90
3628;DHT22;1830;49.000;12.074;2022-11-15T04:19:16;3.00;99.90
3628;DHT22;1830;49.000;12.074;2022-11-15T04:22:02;3.00;99.90
3628;DHT22;1830;49.000;12.074;2022-11-15T04:24:47;3.00;99.90
3628;DHT22;1830;49.000;12.074;2022-11-15T04:27:13;3.00;99.90
3628;DHT22;1830;49.000;12.074;2022-11-15T04:29:41;3.00;99.90
3628;DHT22;1830;49.000;12.074;2022-11-15T04:32:08;3.00;99.90
3628;DHT22;1830;49.000;12.074;2022-11-15T04:34:34;3.00;99.90
3628;DHT22;1830;49.000;12.074;2022-11-15T04:37:05;3.00;99.90
3628;DHT22;1830;49.000;12.074;2022-11-15T04:39:42;3.00;99.90
3628;DHT22;1830;49.000;12.074;2022-11-15T04:42:10;3.00;99.90
3628;DHT22;1830;49.000;12.074;2022-11-15T04:44:37;3.10;99.90
3628;DHT22;1830;49.000;12.074;2022-11-15T04:47:04;3.00;99.90
3628;DHT22;1830;49.000;12.074;2022-11-15T04:49:31;3.00;99.90
3628;DHT22;1830;49.000;12.074;2022-11-15T04:51:58;3.00;99.90
3628;DHT22;1830;49.000;12.074;2022-11-15T04:54:41;3.00;99.90
3628;DHT22;1830;49.000;12.074;2022-11-15T04:57:08;3.00;99.90
3628;DHT22;1830;49.000;12.074;2022-11-15T04:59:35;3.10;99.90
3628;DHT22;1830;49.000;12.074;2022-11-15T05:02:02;3.10;99.90
3628;DHT22;1830;49.000;12.074;2022-11-15T05:04:29;3.20;99.90
3628;DHT22;1830;49.000;12.074;2022-11-15T05:06:55;3.10;99.90
3628;DHT22;1830;49.000;12.074;2022-11-15T05:09:22;3.10;99.90
3628;DHT22;1830;49.000;12.074;2022-11-15T05:12:03;3.10;99.90
3628;DHT22;1830;49.000;12.074;2022-11-15T05:14:31;3.00;99.90
3628;DHT22;1830;49.000;12.074;2022-11-15T05:17:04;3.00;99.90
3628;DHT22;1830;49.000;12.074;2022-11-15T05:19:31;2.90;99.90
3628;DHT22;1830;49.000;12.074;2022-11-15T05:21:58;2.90;99.90
3628;DHT22;1830;49.000;12.074;2022-11-15T05:24:26;3.00;99.90
3628;DHT22;1830;49.000;12.074;2022-11-15T05:27:20;3.00;99.90
3628;DHT22;1830;49.000;12.074;2022-11-15T05:30:05;3.00;99.90
3628;DHT22;1830;49.000;12.074;2022-11-15T05:32:32;3.00;99.90
3628;DHT22;1830;49.000;12.074;2022-11-15T05:34:59;3.00;99.90
3628;DHT22;1830;49.000;12.074;2022-11-15T05:37:26;2.90;99.90
3628;DHT22;1830;49.000;12.074;2022-11-15T05:39:54;2.90;99.90
3628;DHT22;1830;49.000;12.074;2022-11-15T05:42:23;2.90;99.90
3628;DHT22;1830;49.000;12.074;2022-11-15T05:44:52;2.90;99.90
3628;DHT22;1830;49.000;12.074;2022-11-15T05:47:21;2.90;99.90
3628;DHT22;1830;49.000;12.074;2022-11-15T05:49:49;2.80;99.90
3628;DHT22;1830;49.000;12.074;2022-11-15T05:52:21;2.80;99.90
3628;DHT22;1830;49.000;12.074;2022-11-15T05:54:49;2.80;99.90
3628;DHT22;1830;49.000;12.074;2022-11-15T05:57:17;2.80;99.90
3628;DHT22;1830;49.000;12.074;2022-11-15T05:59:45;2.80;99.90
3628;DHT22;1830;49.000;12.074;2022-11-15T06:02:12;3.60;99.90
3628;DHT22;1830;49.000;12.074;2022-11-15T06:04:39;3.90;99.90
3628;DHT22;1830;49.000;12.074;2022-11-15T06:07:06;3.60;99.90
3628;DHT22;1830;49.000;12.074;2022-11-15T06:09:33;3.50;99.90
3628;DHT22;1830;49.000;12.074;2022-11-15T06:12:00;3.40;99.90
3628;DHT22;1830;49.000;12.074;2022-11-15T06:14:27;3.30;99.90
3628;DHT22;1830;49.000;12.074;2022-11-15T06:16:55;3.30;99.90
3628;DHT22;1830;49.000;12.074;2022-11-15T06:19:22;3.20;99.90
3628;DHT22;1830;49.000;12.074;2022-11-15T06:21:49;3.20;99.90
3628;DHT22;1830;49.000;12.074;2022-11-15T06:24:16;3.20;99.90
3628;DHT22;1830;49.000;12.074;2022-11-15T06:26:42;3.20;99.90
3628;DHT22;1830;49.000;12.074;2022-11-15T06:29:09;3.20;99.90
3628;DHT22;1830;49.000;12.074;2022-11-15T06:31:36;3.20;99.90
3628;DHT22;1830;49.000;12.074;2022-11-15T06:34:04;3.20;99.90
3628;DHT22;1830;49.000;12.074;2022-11-15T06:36:34;3.20;99.90
3628;DHT22;1830;49.000;12.074;2022-11-15T06:39:00;3.30;99.90
3628;DHT22;1830;49.000;12.074;2022-11-15T06:41:27;3.30;99.90
3628;DHT22;1830;49.000;12.074;2022-11-15T06:43:54;3.40;99.90
3628;DHT22;1830;49.000;12.074;2022-11-15T06:46:21;3.50;99.90
3628;DHT22;1830;49.000;12.074;2022-11-15T06:48:50;3.50;99.90
3628;DHT22;1830;49.000;12.074;2022-11-15T06:51:19;3.60;99.90
3628;DHT22;1830;49.000;12.074;2022-11-15T06:53:45;3.60;99.90
3628;DHT22;1830;49.000;12.074;2022-11-15T06:56:12;3.70;99.90
3628;DHT22;1830;49.000;12.074;2022-11-15T06:58:39;3.80;99.90
3628;DHT22;1830;49.000;12.074;2022-11-15T07:01:08;3.80;99.90
3628;DHT22;1830;49.000;12.074;2022-11-15T07:03:36;3.80;99.90
3628;DHT22;1830;49.000;12.074;2022-11-15T07:06:03;3.90;99.90
3628;DHT22;1830;49.000;12.074;2022-11-15T07:08:32;4.10;99.90
3628;DHT22;1830;49.000;12.074;2022-11-15T07:11:00;4.00;99.90
3628;DHT22;1830;49.000;12.074;2022-11-15T07:13:28;3.90;99.90
3628;DHT22;1830;49.000;12.074;2022-11-15T07:15:55;3.90;99.90
3628;DHT22;1830;49.000;12.074;2022-11-15T07:18:22;3.90;99.90
3628;DHT22;1830;49.000;12.074;2022-11-15T07:20:48;3.90;99.90
3628;DHT22;1830;49.000;12.074;2022-11-15T07:23:15;3.90;99.90
3628;DHT22;1830;49.000;12.074;2022-11-15T07:25:43;3.90;99.90
3628;DHT22;1830;49.000;12.074;2022-11-15T07:28:10;4.00;99.90
3628;DHT22;1830;49.000;12.074;2022-11-15T07:30:37;3.90;99.90
3628;DHT22;1830;49.000;12.074;2022-11-15T07:33:04;4.00;99.90
3628;DHT22;1830;49.000;12.074;2022-11-15T07:35:31;4.00;99.90
3628;DHT22;1830;49.000;12.074;2022-11-15T07:37:59;3.90;99.90
3628;DHT22;1830;49.000;12.074;2022-11-15T07:40:27;3.90;99.90
3628;DHT22;1830;49.000;12.074;2022-11-15T07:43:00;3.90;99.90
3628;DHT22;1830;49.000;12.074;2022-11-15T07:45:27;4.00;99.90
3628;DHT22;1830;49.000;12.074;2022-11-15T07:47:55;4.10;99.90
3628;DHT22;1830;49.000;12.074;2022-11-15T07:50:23;4.10;99.90
3628;DHT22;1830;49.000;12.074;2022-11-15T07:52:59;4.10;99.90
3628;DHT22;1830;49.000;12.074;2022-11-15T07:55:28;4.20;99.90
3628;DHT22;1830;49.000;12.074;2022-11-15T07:58:02;4.30;99.90
3628;DHT22;1830;49.000;12.074;2022-11-15T08:00:29;4.30;99.90
3628;DHT22;1830;49.000;12.074;2022-11-15T08:03:02;4.30;99.90
3628;DHT22;1830;49.000;12.074;2022-11-15T08:05:29;4.40;99.90
3628;DHT22;1830;49.000;12.074;2022-11-15T08:07:56;4.40;99.90
3628;DHT22;1830;49.000;12.074;2022-11-15T08:10:23;4.40;99.90
3628;DHT22;1830;49.000;12.074;2022-11-15T08:12:57;4.50;99.90
3628;DHT22;1830;49.000;12.074;2022-11-15T08:15:25;4.40;99.90
3628;DHT22;1830;49.000;12.074;2022-11-15T08:17:55;4.50;99.90
3628;DHT22;1830;49.000;12.074;2022-11-15T08:20:23;4.60;99.90
3628;DHT22;1830;49.000;12.074;2022-11-15T08:22:51;4.70;99.90
3628;DHT22;1830;49.000;12.074;2022-11-15T08:25:18;4.70;99.90
3628;DHT22;1830;49.000;12.074;2022-11-15T08:27:45;4.80;99.90
3628;DHT22;1830;49.000;12.074;2022-11-15T08:30:12;4.80;99.90
3628;DHT22;1830;49.000;12.074;2022-11-15T08:32:42;4.80;99.90
3628;DHT22;1830;49.000;12.074;2022-11-15T08:35:09;4.80;99.90
3628;DHT22;1830;49.000;12.074;2022-11-15T08:37:36;4.90;99.90
3628;DHT22;1830;49.000;12.074;2022-11-15T08:40:04;4.90;99.90
3628;DHT22;1830;49.000;12.074;2022-11-15T08:42:31;5.00;99.90
3628;DHT22;1830;49.000;12.074;2022-11-15T08:44:58;5.10;99.90
3628;DHT22;1830;49.000;12.074;2022-11-15T08:47:25;5.10;99.90
3628;DHT22;1830;49.000;12.074;2022-11-15T08:49:53;5.10;99.90
3628;DHT22;1830;49.000;12.074;2022-11-15T08:52:20;5.20;99.90
3628;DHT22;1830;49.000;12.074;2022-11-15T08:54:47;5.30;99.90
3628;DHT22;1830;49.000;12.074;2022-11-15T08:57:14;5.30;99.90
3628;DHT22;1830;49.000;12.074;2022-11-15T08:59:41;5.40;99.90
3628;DHT22;1830;49.000;12.074;2022-11-15T09:02:12;5.40;99.90
3628;DHT22;1830;49.000;12.074;2022-11-15T09:04:40;5.50;99.90
3628;DHT22;1830;49.000;12.074;2022-11-15T09:07:09;5.50;99.90
3628;DHT22;1830;49.000;12.074;2022-11-15T09:09:36;5.50;99.90
3628;DHT22;1830;49.000;12.074;2022-11-15T09:12:05;5.60;99.90
3628;DHT22;1830;49.000;12.074;2022-11-15T09:14:32;5.60;99.90
3628;DHT22;1830;49.000;12.074;2022-11-15T09:16:59;5.60;99.90
3628;DHT22;1830;49.000;12.074;2022-11-15T09:19:26;5.70;99.90
3628;DHT22;1830;49.000;12.074;2022-11-15T09:21:53;5.70;99.90
3628;DHT22;1830;49.000;12.074;2022-11-15T09:24:22;5.80;99.90
3628;DHT22;1830;49.000;12.074;2022-11-15T09:26:49;5.90;99.90
3628;DHT22;1830;49.000;12.074;2022-11-15T09:29:16;5.90;99.90
3628;DHT22;1830;49.000;12.074;2022-11-15T09:31:43;5.90;99.90
3628;DHT22;1830;49.000;12.074;2022-11-15T09:34:11;5.90;99.90
3628;DHT22;1830;49.000;12.074;2022-11-15T09:36:38;6.00;99.90
3628;DHT22;1830;49.000;12.074;2022-11-15T09:39:05;6.00;99.90
3628;DHT22;1830;49.000;12.074;2022-11-15T09:41:55;6.10;99.90
3628;DHT22;1830;49.000;12.074;2022-11-15T09:44:39;6.10;99.90
3628;DHT22;1830;49.000;12.074;2022-11-15T09:47:28;6.20;99.90
3628;DHT22;1830;49.000;12.074;2022-11-15T09:49:59;6.20;99.90
3628;DHT22;1830;49.000;12.074;2022-11-15T09:52:29;6.20;99.90
3628;DHT22;1830;49.000;12.074;2022-11-15T09:54:56;6.30;99.90
3628;DHT22;1830;49.000;12.074;2022-11-15T09:57:31;6.30;99.90
3628;DHT22;1830;49.000;12.074;2022-11-15T10:00:06;6.40;99.90
3628;DHT22;1830;49.000;12.074;2022-11-15T10:02:43;6.40;99.90
3628;DHT22;1830;49.000;12.074;2022-11-15T10:05:20;6.50;99.90
3628;DHT22;1830;49.000;12.074;2022-11-15T10:07:53;6.60;99.90
3628;DHT22;1830;49.000;12.074;2022-11-15T10:10:25;6.60;99.90
3628;DHT22;1830;49.000;12.074;2022-11-15T10:12:55;6.70;99.90
3628;DHT22;1830;49.000;12.074;2022-11-15T10:15:22;6.70;99.90
3628;DHT22;1830;49.000;12.074;2022-11-15T10:18:07;6.80;99.90
3628;DHT22;1830;49.000;12.074;2022-11-15T10:20:44;6.80;99.90
3628;DHT22;1830;49.000;12.074;2022-11-15T10:23:15;6.90;99.90
3628;DHT22;1830;49.000;12.074;2022-11-15T10:25:43;6.90;99.90
3628;DHT22;1830;49.000;12.074;2022-11-15T10:28:14;7.00;99.90
3628;DHT22;1830;49.000;12.074;2022-11-15T10:30:43;7.00;99.90
3628;DHT22;1830;49.000;12.074;2022-11-15T10:33:24;7.10;99.90
3628;DHT22;1830;49.000;12.074;2022-11-15T10:36:19;7.10;99.90
3628;DHT22;1830;49.000;12.074;2022-11-15T10:38:55;7.20;99.90
3628;DHT22;1830;49.000;12.074;2022-11-15T10:41:29;7.30;99.90
3628;DHT22;1830;49.000;12.074;2022-11-15T10:44:22;7.30;99.90
3628;DHT22;1830;49.000;12.074;2022-11-15T10:47:06;7.40;99.90
3628;DHT22;1830;49.000;12.074;2022-11-15T10:49:34;7.50;99.90
3628;DHT22;1830;49.000;12.074;2022-11-15T10:52:04;7.60;99.90
3628;DHT22;1830;49.000;12.074;2022-11-15T10:54:40;7.70;99.90
3628;DHT22;1830;49.000;12.074;2022-11-15T10:57:13;7.80;99.90
3628;DHT22;1830;49.000;12.074;2022-11-15T10:59:46;7.90;99.90
3628;DHT22;1830;49.000;12.074;2022-11-15T11:02:29;7.90;99.90
3628;DHT22;1830;49.000;12.074;2022-11-15T11:04:57;8.00;99.90
3628;DHT22;1830;49.000;12.074;2022-11-15T11:07:26;8.00;99.90
3628;DHT22;1830;49.000;12.074;2022-11-15T11:09:59;8.10;99.90
3628;DHT22;1830;49.000;12.074;2022-11-15T11:12:28;8.10;99.90
3628;DHT22;1830;49.000;12.074;2022-11-15T11:14:59;8.10;99.90
3628;DHT22;1830;49.000;12.074;2022-11-15T11:17:35;8.20;99.90
3628;DHT22;1830;49.000;12.074;2022-11-15T11:20:10;8.30;99.90
3628;DHT22;1830;49.000;12.074;2022-11-15T11:22:53;8.40;99.90
3628;DHT22;1830;49.000;12.074;2022-11-15T11:25:30;8.50;99.90
3628;DHT22;1830;49.000;12.074;2022-11-15T11:28:14;8.50;99.90
3628;DHT22;1830;49.000;12.074;2022-11-15T11:31:09;8.50;99.90
3628;DHT22;1830;49.000;12.074;2022-11-15T11:33:42;8.60;99.90
3628;DHT22;1830;49.000;12.074;2022-11-15T11:36:18;8.60;99.90
3628;DHT22;1830;49.000;12.074;2022-11-15T11:38:51;8.70;99.90
3628;DHT22;1830;49.000;12.074;2022-11-15T11:41:37;8.80;99.90
3628;DHT22;1830;49.000;12.074;2022-11-15T11:44:16;8.90;99.90
3628;DHT22;1830;49.000;12.074;2022-11-15T11:46:55;9.00;99.90
3628;DHT22;1830;49.000;12.074;2022-11-15T11:49:29;8.90;99.90
3628;DHT22;1830;49.000;12.074;2022-11-15T11:52:02;9.00;99.90
3628;DHT22;1830;49.000;12.074;2022-11-15T11:54:36;9.00;99.90
3628;DHT22;1830;49.000;12.074;2022-11-15T11:57:07;9.10;99.90
3628;DHT22;1830;49.000;12.074;2022-11-15T11:59:41;9.30;99.90
3628;DHT22;1830;49.000;12.074;2022-11-15T12:02:25;9.30;99.90
3628;DHT22;1830;49.000;12.074;2022-11-15T12:05:01;9.30;99.90
3628;DHT22;1830;49.000;12.074;2022-11-15T12:07:32;9.30;99.90
3628;DHT22;1830;49.000;12.074;2022-11-15T12:10:04;9.40;99.90
3628;DHT22;1830;49.000;12.074;2022-11-15T12:12:36;9.50;99.90
3628;DHT22;1830;49.000;12.074;2022-11-15T12:15:14;9.50;99.90
3628;DHT22;1830;49.000;12.074;2022-11-15T12:17:44;9.60;99.90
3628;DHT22;1830;49.000;12.074;2022-11-15T12:20:17;9.60;99.90
3628;DHT22;1830;49.000;12.074;2022-11-15T12:22:49;9.60;99.90
3628;DHT22;1830;49.000;12.074;2022-11-15T12:25:22;9.70;99.90
3628;DHT22;1830;49.000;12.074;2022-11-15T12:27:54;9.70;99.90
3628;DHT22;1830;49.000;12.074;2022-11-15T12:30:24;9.80;99.90
3628;DHT22;1830;49.000;12.074;2022-11-15T12:32:55;9.90;99.90
3628;DHT22;1830;49.000;12.074;2022-11-15T12:35:35;9.90;99.90
3628;DHT22;1830;49.000;12.074;2022-11-15T12:38:09;9.90;99.90
3628;DHT22;1830;49.000;12.074;2022-11-15T12:40:38;10.00;99.90
3628;DHT22;1830;49.000;12.074;2022-11-15T12:43:37;10.10;99.90
3628;DHT22;1830;49.000;12.074;2022-11-15T12:46:10;10.10;99.90
3628;DHT22;1830;49.000;12.074;2022-11-15T12:49:00;10.20;99.90
3628;DHT22;1830;49.000;12.074;2022-11-15T12:54:59;10.30;99.90
3628;DHT22;1830;49.000;12.074;2022-11-15T12:57:38;10.30;99.90
3628;DHT22;1830;49.000;12.074;2022-11-15T13:03:31;10.30;99.90
3628;DHT22;1830;49.000;12.074;2022-11-15T13:06:40;10.40;99.90
3628;DHT22;1830;49.000;12.074;2022-11-15T13:12:49;10.40;99.90
3628;DHT22;1830;49.000;12.074;2022-11-15T13:15:37;10.40;99.90
3628;DHT22;1830;49.000;12.074;2022-11-15T13:18:36;10.40;99.90
3628;DHT22;1830;49.000;12.074;2022-11-15T13:21:19;10.40;99.90
3628;DHT22;1830;49.000;12.074;2022-11-15T13:24:12;10.40;99.90
3628;DHT22;1830;49.000;12.074;2022-11-15T13:26:39;10.40;99.90
3628;DHT22;1830;49.000;12.074;2022-11-15T13:29:15;10.40;99.90
3628;DHT22;1830;49.000;12.074;2022-11-15T13:31:43;10.30;99.90
3628;DHT22;1830;49.000;12.074;2022-11-15T13:34:24;10.30;99.90
3628;DHT22;1830;49.000;12.074;2022-11-15T13:36:52;10.30;99.90
3628;DHT22;1830;49.000;12.074;2022-11-15T13:39:31;10.30;99.90
3628;DHT22;1830;49.000;12.074;2022-11-15T13:42:01;10.20;99.90
3628;DHT22;1830;49.000;12.074;2022-11-15T13:44:30;10.20;99.90
3628;DHT22;1830;49.000;12.074;2022-11-15T13:47:03;10.20;99.90
3628;DHT22;1830;49.000;12.074;2022-11-15T13:49:31;10.20;99.90
3628;DHT22;1830;49.000;12.074;2022-11-15T13:52:00;10.10;99.90
3628;DHT22;1830;49.000;12.074;2022-11-15T13:54:32;10.10;99.90
3628;DHT22;1830;49.000;12.074;2022-11-15T13:57:02;10.10;99.90
3628;DHT22;1830;49.000;12.074;2022-11-15T13:59:45;10.10;99.90
3628;DHT22;1830;49.000;12.074;2022-11-15T14:02:15;10.10;99.90
3628;DHT22;1830;49.000;12.074;2022-11-15T14:04:49;10.10;99.90
3628;DHT22;1830;49.000;12.074;2022-11-15T14:07:24;10.10;99.90
3628;DHT22;1830;49.000;12.074;2022-11-15T14:09:53;10.10;99.90
3628;DHT22;1830;49.000;12.074;2022-11-15T14:12:26;10.10;99.90
3628;DHT22;1830;49.000;12.074;2022-11-15T14:14:54;10.10;99.90
3628;DHT22;1830;49.000;12.074;2022-11-15T14:17:33;10.00;99.90
3628;DHT22;1830;49.000;12.074;2022-11-15T14:20:01;10.00;99.90
3628;DHT22;1830;49.000;12.074;2022-11-15T14:22:29;9.90;99.90
3628;DHT22;1830;49.000;12.074;2022-11-15T14:25:14;9.90;99.90
3628;DHT22;1830;49.000;12.074;2022-11-15T14:27:42;9.80;99.90
3628;DHT22;1830;49.000;12.074;2022-11-15T14:30:13;9.80;99.90
3628;DHT22;1830;49.000;12.074;2022-11-15T14:32:44;9.80;99.90
3628;DHT22;1830;49.000;12.074;2022-11-15T14:35:14;9.80;99.90
3628;DHT22;1830;49.000;12.074;2022-11-15T14:37:41;9.80;99.90
3628;DHT22;1830;49.000;12.074;2022-11-15T14:40:14;9.70;99.90
3628;DHT22;1830;49.000;12.074;2022-11-15T14:42:41;9.70;99.90
3628;DHT22;1830;49.000;12.074;2022-11-15T14:45:12;9.70;99.90
3628;DHT22;1830;49.000;12.074;2022-11-15T14:47:40;9.60;99.90
3628;DHT22;1830;49.000;12.074;2022-11-15T14:50:11;9.60;99.90
3628;DHT22;1830;49.000;12.074;2022-11-15T14:52:39;9.50;99.90
3628;DHT22;1830;49.000;12.074;2022-11-15T14:55:15;9.50;99.90
3628;DHT22;1830;49.000;12.074;2022-11-15T14:57:43;9.40;99.90
3628;DHT22;1830;49.000;12.074;2022-11-15T15:00:12;9.40;99.90
3628;DHT22;1830;49.000;12.074;2022-11-15T15:02:40;9.30;99.90
3628;DHT22;1830;49.000;12.074;2022-11-15T15:05:19;9.30;99.90
3628;DHT22;1830;49.000;12.074;2022-11-15T15:07:46;9.20;99.90
3628;DHT22;1830;49.000;12.074;2022-11-15T15:10:16;9.10;99.90
3628;DHT22;1830;49.000;12.074;2022-11-15T15:12:50;9.10;99.90
3628;DHT22;1830;49.000;12.074;2022-11-15T15:15:20;9.00;99.90
3628;DHT22;1830;49.000;12.074;2022-11-15T15:17:48;8.90;99.90
3628;DHT22;1830;49.000;12.074;2022-11-15T15:20:15;8.80;99.90
3628;DHT22;1830;49.000;12.074;2022-11-15T15:22:42;8.70;99.90
3628;DHT22;1830;49.000;12.074;2022-11-15T15:25:27;8.60;99.90
3628;DHT22;1830;49.000;12.074;2022-11-15T15:27:54;8.60;99.90
3628;DHT22;1830;49.000;12.074;2022-11-15T15:30:21;8.50;99.90
3628;DHT22;1830;49.000;12.074;2022-11-15T15:32:48;8.40;99.90
3628;DHT22;1830;49.000;12.074;2022-11-15T15:35:16;8.40;99.90
3628;DHT22;1830;49.000;12.074;2022-11-15T15:37:44;8.30;99.90
3628;DHT22;1830;49.000;12.074;2022-11-15T15:40:15;8.20;99.90
3628;DHT22;1830;49.000;12.074;2022-11-15T15:42:44;8.20;99.90
3628;DHT22;1830;49.000;12.074;2022-11-15T15:45:12;8.10;99.90
3628;DHT22;1830;49.000;12.074;2022-11-15T15:47:42;8.00;99.90
3628;DHT22;1830;49.000;12.074;2022-11-15T15:50:18;8.00;99.90
3628;DHT22;1830;49.000;12.074;2022-11-15T15:52:46;8.00;99.90
3628;DHT22;1830;49.000;12.074;2022-11-15T15:55:14;7.90;99.90
3628;DHT22;1830;49.000;12.074;2022-11-15T15:57:41;7.90;99.90
3628;DHT22;1830;49.000;12.074;2022-11-15T16:00:10;7.80;99.90
3628;DHT22;1830;49.000;12.074;2022-11-15T16:02:37;7.70;99.90
3628;DHT22;1830;49.000;12.074;2022-11-15T16:05:05;7.70;99.90
3628;DHT22;1830;49.000;12.074;2022-11-15T16:07:32;7.70;99.90
3628;DHT22;1830;49.000;12.074;2022-11-15T16:09:59;7.70;99.90
3628;DHT22;1830;49.000;12.074;2022-11-15T16:12:29;7.70;99.90
3628;DHT22;1830;49.000;12.074;2022-11-15T16:14:57;7.70;99.90
3628;DHT22;1830;49.000;12.074;2022-11-15T16:17:28;7.70;99.90
3628;DHT22;1830;49.000;12.074;2022-11-15T16:19:55;7.60;99.90
3628;DHT22;1830;49.000;12.074;2022-11-15T16:22:28;7.50;99.90
3628;DHT22;1830;49.000;12.074;2022-11-15T16:24:57;7.40;99.90
3628;DHT22;1830;49.000;12.074;2022-11-15T16:27:24;7.40;99.90
3628;DHT22;1830;49.000;12.074;2022-11-15T16:29:50;7.40;99.90
3628;DHT22;1830;49.000;12.074;2022-11-15T16:32:17;7.30;99.90
3628;DHT22;1830;49.000;12.074;2022-11-15T16:34:46;7.30;99.90
3628;DHT22;1830;49.000;12.074;2022-11-15T16:37:21;7.40;99.90